createdAt,value
2023-01-17T00:00:40.331Z,6.39
2023-01-17T00:03:12.335Z,6.34
2023-01-17T00:06:03.047Z,6.29
2023-01-17T00:08:53.736Z,6.22
2023-01-17T00:11:25.703Z,6.23
2023-01-17T00:13:57.693Z,6.28
2023-01-17T00:16:29.650Z,6.27
2023-01-17T00:19:24.620Z,6.22
2023-01-17T00:22:14.959Z,6.25
2023-01-17T00:25:05.284Z,6.16
2023-01-17T00:27:37.135Z,6.12
2023-01-17T00:30:11.532Z,6.14
2023-01-17T00:32:43.387Z,6.13
2023-01-17T00:35:16.003Z,6.16
2023-01-17T00:37:47.924Z,6.16
2023-01-17T00:40:19.793Z,6.12
2023-01-17T00:42:51.643Z,6.07
2023-01-17T00:45:42.188Z,6.03
2023-01-17T00:48:32.736Z,5.96
2023-01-17T00:51:23.689Z,5.79
2023-01-17T00:54:14.198Z,5.94
2023-01-17T00:57:05.118Z,5.91
2023-01-17T00:59:56.337Z,5.89
2023-01-17T01:02:47.302Z,5.73
2023-01-17T01:05:38.387Z,5.81
2023-01-17T01:08:46.515Z,5.73
2023-01-17T01:11:39.801Z,5.74
2023-01-17T01:14:30.580Z,5.86
2023-01-17T01:17:21.111Z,5.80
2023-01-17T01:20:11.493Z,5.95
2023-01-17T01:23:01.850Z,5.93
2023-01-17T01:25:52.208Z,5.88
2023-01-17T01:28:42.727Z,5.85
2023-01-17T01:31:34.656Z,5.86
2023-01-17T01:34:06.675Z,5.83
2023-01-17T01:36:38.678Z,5.82
2023-01-17T01:39:10.773Z,5.78
2023-01-17T01:41:42.770Z,5.76
2023-01-17T01:44:43.711Z,5.72
2023-01-17T01:47:19.768Z,5.72
2023-01-17T01:49:52.532Z,5.69
2023-01-17T01:52:30.258Z,5.67
2023-01-17T01:55:16.293Z,5.56
2023-01-17T01:57:54.804Z,5.58
2023-01-17T02:00:33.697Z,5.67
2023-01-17T02:03:13.261Z,5.59
2023-01-17T02:05:45.476Z,5.54
2023-01-17T02:08:22.609Z,5.66
2023-01-17T02:10:56.516Z,5.71
2023-01-17T02:13:29.203Z,5.71
2023-01-17T02:16:31.068Z,5.69
2023-01-17T02:19:53.906Z,5.70
2023-01-17T02:23:07.463Z,5.67
2023-01-17T02:26:13.333Z,5.64
2023-01-17T02:29:19.464Z,5.61
2023-01-17T02:31:54.495Z,5.59
2023-01-17T02:34:44.805Z,5.58
2023-01-17T02:37:34.921Z,5.26
2023-01-17T02:40:26.526Z,5.35
2023-01-17T02:43:10.793Z,5.35
2023-01-17T02:45:43.102Z,5.34
2023-01-17T02:48:22.002Z,5.26
2023-01-17T02:51:05.819Z,5.20
2023-01-17T02:53:59.713Z,5.22
2023-01-17T02:56:59.528Z,5.32
2023-01-17T03:00:03.923Z,5.38
2023-01-17T03:02:50.740Z,5.20
2023-01-17T03:05:41.592Z,5.27
2023-01-17T03:08:15.824Z,5.17
2023-01-17T03:10:47.960Z,5.22
2023-01-17T03:13:19.950Z,5.17
2023-01-17T03:15:52.014Z,5.08
2023-01-17T03:18:24.389Z,4.97
2023-01-17T03:20:56.352Z,4.99
2023-01-17T03:23:28.255Z,4.95
2023-01-17T03:26:00.420Z,4.97
2023-01-17T03:28:32.425Z,5.02
2023-01-17T03:31:04.822Z,5.01
2023-01-17T03:33:36.955Z,5.04
2023-01-17T03:36:09.309Z,5.06
2023-01-17T03:38:41.414Z,5.11
2023-01-17T03:41:13.369Z,5.09
2023-01-17T03:43:45.294Z,5.09
2023-01-17T03:46:28.938Z,5.06
2023-01-17T03:49:00.929Z,5.04
2023-01-17T03:51:32.924Z,4.69
2023-01-17T03:54:05.095Z,4.97
2023-01-17T03:56:37.105Z,4.94
2023-01-17T03:59:10.957Z,4.98
2023-01-17T04:01:44.951Z,4.97
2023-01-17T04:04:17.047Z,4.98
2023-01-17T04:06:48.982Z,4.69
2023-01-17T04:09:21.054Z,4.97
2023-01-17T04:11:53.359Z,4.96
2023-01-17T04:14:25.245Z,4.91
2023-01-17T04:16:57.618Z,4.96
2023-01-17T04:19:31.773Z,4.99
2023-01-17T04:22:04.296Z,4.97
2023-01-17T04:24:36.451Z,4.98
2023-01-17T04:27:09.150Z,4.97
2023-01-17T04:29:41.216Z,4.97
2023-01-17T04:32:13.145Z,4.97
2023-01-17T04:34:45.072Z,4.81
2023-01-17T04:37:17.003Z,4.89
2023-01-17T04:39:48.949Z,4.85
2023-01-17T04:42:21.032Z,4.82
2023-01-17T04:44:52.986Z,4.81
2023-01-17T04:47:24.963Z,4.80
2023-01-17T04:49:56.959Z,4.76
2023-01-17T04:52:29.103Z,4.81
2023-01-17T04:55:00.981Z,4.80
2023-01-17T04:57:32.928Z,4.70
2023-01-17T05:00:05.886Z,4.74
2023-01-17T05:02:37.841Z,4.69
2023-01-17T05:05:10.649Z,4.63
2023-01-17T05:07:42.655Z,4.67
2023-01-17T05:10:14.607Z,4.67
2023-01-17T05:12:58.243Z,4.66
2023-01-17T05:15:31.089Z,4.62
2023-01-17T05:18:07.271Z,4.59
2023-01-17T05:20:39.229Z,4.56
2023-01-17T05:23:11.508Z,4.55
2023-01-17T05:25:44.498Z,4.53
2023-01-17T05:28:16.709Z,4.55
2023-01-17T05:30:48.646Z,4.53
2023-01-17T05:33:20.719Z,4.57
2023-01-17T05:35:53.002Z,4.58
2023-01-17T05:38:25.092Z,4.53
2023-01-17T05:41:01.255Z,4.59
2023-01-17T05:43:33.256Z,4.64
2023-01-17T05:46:05.564Z,4.67
2023-01-17T05:48:37.637Z,4.47
2023-01-17T05:51:09.703Z,4.54
2023-01-17T05:53:41.651Z,4.64
2023-01-17T05:56:13.671Z,4.60
2023-01-17T05:58:45.670Z,4.58
2023-01-17T06:01:17.864Z,4.42
2023-01-17T06:03:49.849Z,4.51
2023-01-17T06:06:22.369Z,4.50
2023-01-17T06:08:54.338Z,4.37
2023-01-17T06:11:26.707Z,4.37
2023-01-17T06:13:58.651Z,4.47
2023-01-17T06:16:30.567Z,4.49
2023-01-17T06:19:02.788Z,4.53
2023-01-17T06:21:34.766Z,4.55
2023-01-17T06:24:07.175Z,4.50
2023-01-17T06:26:39.176Z,4.49
2023-01-17T06:29:12.697Z,4.40
2023-01-17T06:31:44.852Z,4.42
2023-01-17T06:34:17.078Z,4.40
2023-01-17T06:36:49.086Z,4.37
2023-01-17T06:39:21.183Z,4.35
2023-01-17T06:41:53.263Z,4.04
2023-01-17T06:44:26.331Z,4.23
2023-01-17T06:46:58.270Z,4.19
2023-01-17T06:49:30.454Z,4.19
2023-01-17T06:52:02.365Z,4.16
2023-01-17T06:54:34.362Z,4.12
2023-01-17T06:57:06.325Z,4.13
2023-01-17T06:59:38.493Z,4.15
2023-01-17T07:02:11.862Z,4.10
2023-01-17T07:04:43.823Z,4.01
2023-01-17T07:07:15.806Z,4.12
2023-01-17T07:09:47.786Z,4.16
2023-01-17T07:12:19.699Z,4.16
2023-01-17T07:14:51.607Z,4.16
2023-01-17T07:17:23.505Z,4.07
2023-01-17T07:19:55.446Z,4.06
2023-01-17T07:22:27.450Z,4.05
2023-01-17T07:24:59.692Z,4.11
2023-01-17T07:27:33.571Z,4.08
2023-01-17T07:30:06.429Z,4.12
2023-01-17T07:32:38.833Z,4.16
2023-01-17T07:35:10.765Z,4.03
2023-01-17T07:37:51.319Z,4.12
2023-01-17T07:40:23.571Z,4.06
2023-01-17T07:43:01.744Z,4.12
2023-01-17T07:45:33.705Z,4.13
2023-01-17T07:48:05.783Z,4.14
2023-01-17T07:50:38.014Z,4.16
2023-01-17T07:53:10.991Z,4.20
2023-01-17T07:55:42.909Z,4.13
2023-01-17T07:58:15.441Z,4.23
2023-01-17T08:00:47.719Z,4.22
2023-01-17T08:03:19.756Z,4.21
2023-01-17T08:05:57.673Z,4.25
2023-01-17T08:08:29.966Z,4.29
2023-01-17T08:11:02.000Z,4.30
2023-01-17T08:13:33.933Z,4.27
2023-01-17T08:16:06.656Z,4.29
2023-01-17T08:18:39.164Z,4.30
2023-01-17T08:21:16.893Z,4.30
2023-01-17T08:23:51.106Z,4.28
2023-01-17T08:26:23.205Z,4.27
2023-01-17T08:28:59.002Z,4.27
2023-01-17T08:31:35.230Z,3.96
2023-01-17T08:34:07.321Z,4.23
2023-01-17T08:36:39.354Z,4.21
2023-01-17T08:39:14.551Z,4.23
2023-01-17T08:41:46.815Z,4.27
2023-01-17T08:44:20.275Z,4.27
2023-01-17T08:46:52.394Z,4.30
2023-01-17T08:49:24.784Z,4.27
2023-01-17T08:51:56.824Z,4.37
2023-01-17T08:54:28.990Z,4.42
2023-01-17T08:57:03.356Z,4.29
2023-01-17T08:59:35.301Z,4.36
2023-01-17T09:02:17.571Z,4.56
2023-01-17T09:04:50.817Z,4.64
2023-01-17T09:07:24.387Z,4.65
2023-01-17T09:09:59.149Z,4.69
2023-01-17T09:12:36.809Z,4.78
2023-01-17T09:15:09.575Z,4.63
2023-01-17T09:17:41.512Z,4.78
2023-01-17T09:20:14.060Z,4.78
2023-01-17T09:22:46.248Z,4.80
2023-01-17T09:25:18.369Z,4.82
2023-01-17T09:27:50.399Z,4.88
2023-01-17T09:30:22.553Z,4.97
2023-01-17T09:32:55.477Z,5.02
2023-01-17T09:35:27.428Z,5.05
2023-01-17T09:37:59.447Z,5.11
2023-01-17T09:40:31.502Z,5.13
2023-01-17T09:43:14.961Z,5.16
2023-01-17T09:45:46.975Z,5.29
2023-01-17T09:48:43.771Z,5.44
2023-01-17T09:51:24.279Z,5.80
2023-01-17T09:53:56.564Z,6.25
2023-01-17T09:56:46.711Z,6.68
2023-01-17T09:59:35.337Z,7.12
2023-01-17T10:03:09.563Z,7.68
2023-01-17T10:05:58.403Z,7.84
2023-01-17T10:09:12.628Z,7.90
2023-01-17T10:11:53.627Z,8.22
2023-01-17T10:15:09.206Z,8.32
2023-01-17T10:18:04.339Z,8.47
2023-01-17T10:21:10.993Z,8.58
2023-01-17T10:24:33.711Z,8.79
2023-01-17T10:27:40.549Z,9.12
2023-01-17T10:30:38.107Z,8.96
2023-01-17T10:33:19.655Z,8.82
2023-01-17T10:36:20.748Z,8.92
2023-01-17T10:38:59.223Z,9.20
2023-01-17T10:41:45.215Z,9.08
2023-01-17T10:44:53.199Z,8.65
2023-01-17T10:47:29.219Z,8.40
2023-01-17T10:50:05.377Z,8.49
2023-01-17T10:53:09.011Z,8.78
2023-01-17T10:55:53.450Z,8.71
2023-01-17T10:58:25.929Z,8.68
2023-01-17T11:01:03.054Z,8.98
2023-01-17T11:03:35.427Z,9.38
2023-01-17T11:06:27.690Z,9.75
2023-01-17T11:09:05.318Z,10.15
2023-01-17T11:11:49.332Z,10.36
2023-01-17T11:14:25.846Z,10.48
2023-01-17T11:17:06.740Z,10.68
2023-01-17T11:19:39.496Z,11.02
2023-01-17T11:22:15.988Z,11.27
2023-01-17T11:24:53.785Z,11.54
2023-01-17T11:27:36.417Z,11.92
2023-01-17T11:30:20.416Z,11.97
2023-01-17T11:33:09.321Z,12.15
2023-01-17T11:35:47.283Z,12.22
2023-01-17T11:38:22.407Z,12.13
2023-01-17T11:41:14.637Z,12.46
2023-01-17T11:43:56.788Z,12.29
2023-01-17T11:46:29.789Z,12.23
2023-01-17T11:49:02.020Z,12.19
2023-01-17T11:51:41.751Z,12.00
2023-01-17T11:54:39.418Z,11.40
2023-01-17T11:57:29.713Z,10.97
2023-01-17T12:00:22.411Z,11.04
2023-01-17T12:03:45.721Z,10.59
2023-01-17T12:06:58.351Z,10.78
2023-01-17T12:09:45.545Z,10.95
2023-01-17T12:13:23.013Z,11.09
2023-01-17T12:16:36.996Z,11.16
2023-01-17T12:19:41.338Z,11.30
2023-01-17T12:22:53.344Z,11.14
2023-01-17T12:25:48.566Z,11.24
2023-01-17T12:28:48.167Z,11.17
2023-01-17T12:31:33.438Z,11.61
2023-01-17T12:34:32.117Z,11.14
2023-01-17T12:37:44.933Z,11.00
2023-01-17T12:40:33.172Z,10.83
2023-01-17T12:43:32.963Z,10.80
2023-01-17T12:46:25.864Z,10.81
2023-01-17T12:49:29.984Z,10.76
2023-01-17T12:52:31.940Z,10.96
2023-01-17T12:55:12.143Z,11.01
2023-01-17T12:57:56.319Z,11.03
2023-01-17T13:00:31.313Z,10.81
2023-01-17T13:03:27.285Z,10.59
2023-01-17T13:06:03.336Z,10.12
2023-01-17T13:08:46.474Z,10.41
2023-01-17T13:11:30.231Z,11.01
2023-01-17T13:14:02.459Z,11.58
2023-01-17T13:16:50.230Z,11.77
2023-01-17T13:19:37.232Z,11.90
2023-01-17T13:22:18.351Z,12.05
2023-01-17T13:25:44.540Z,12.17
2023-01-17T13:28:30.215Z,12.30
2023-01-17T13:31:30.826Z,11.72
2023-01-17T13:34:40.449Z,11.75
2023-01-17T13:38:17.285Z,11.46
2023-01-17T13:41:03.837Z,11.38
2023-01-17T13:44:05.257Z,11.46
2023-01-17T13:47:06.627Z,11.67
2023-01-17T13:49:42.400Z,12.07
2023-01-17T13:52:21.005Z,12.27
2023-01-17T13:55:02.994Z,12.52
2023-01-17T13:57:43.342Z,12.79
2023-01-17T14:00:21.565Z,12.35
2023-01-17T14:02:56.603Z,11.78
2023-01-17T14:05:31.797Z,11.29
2023-01-17T14:08:14.934Z,10.90
2023-01-17T14:11:03.763Z,10.51
2023-01-17T14:13:40.337Z,10.16
2023-01-17T14:16:21.778Z,9.97
2023-01-17T14:18:55.702Z,9.74
2023-01-17T14:21:35.548Z,9.57
2023-01-17T14:24:10.557Z,9.49
2023-01-17T14:26:56.917Z,9.41
2023-01-17T14:30:16.492Z,9.27
2023-01-17T14:33:04.693Z,9.29
2023-01-17T14:35:51.537Z,9.14
2023-01-17T14:38:26.804Z,9.45
2023-01-17T14:40:58.842Z,9.15
2023-01-17T14:43:37.821Z,9.01
2023-01-17T14:46:28.573Z,8.98
2023-01-17T14:49:06.113Z,8.82
2023-01-17T14:51:39.043Z,8.95
2023-01-17T14:54:22.120Z,8.90
2023-01-17T14:57:31.696Z,8.91
2023-01-17T15:00:21.273Z,8.99
2023-01-17T15:02:54.207Z,9.03
2023-01-17T15:05:29.690Z,8.93
2023-01-17T15:08:02.106Z,8.96
2023-01-17T15:10:34.543Z,8.85
2023-01-17T15:13:10.548Z,8.80
2023-01-17T15:15:42.772Z,8.75
2023-01-17T15:18:14.698Z,8.65
2023-01-17T15:21:01.492Z,8.34
2023-01-17T15:23:43.216Z,8.49
2023-01-17T15:26:19.486Z,8.46
2023-01-17T15:28:54.139Z,8.47
2023-01-17T15:32:05.245Z,8.36
2023-01-17T15:34:46.707Z,8.34
2023-01-17T15:37:41.871Z,8.34
2023-01-17T15:40:26.115Z,8.36
2023-01-17T15:43:01.452Z,8.38
2023-01-17T15:45:36.095Z,8.39
2023-01-17T15:48:32.698Z,8.34
2023-01-17T15:51:04.933Z,8.30
2023-01-17T15:53:41.654Z,8.31
2023-01-17T15:56:42.063Z,8.24
2023-01-17T15:59:43.912Z,8.15
2023-01-17T16:02:57.914Z,8.12
2023-01-17T16:05:34.699Z,8.08
2023-01-17T16:08:06.577Z,8.03
2023-01-17T16:10:39.505Z,7.96
2023-01-17T16:13:13.642Z,7.88
2023-01-17T16:15:45.829Z,7.83
2023-01-17T16:18:25.896Z,7.76
2023-01-17T16:21:31.461Z,7.67
2023-01-17T16:24:03.644Z,7.61
2023-01-17T16:26:35.661Z,7.98
2023-01-17T16:29:08.246Z,7.60
2023-01-17T16:31:40.212Z,7.42
2023-01-17T16:34:15.173Z,7.43
2023-01-17T16:36:53.895Z,7.34
2023-01-17T16:39:25.892Z,7.34
2023-01-17T16:42:04.886Z,7.30
2023-01-17T16:44:37.654Z,7.27
2023-01-17T16:47:09.678Z,7.22
2023-01-17T16:49:41.598Z,7.03
2023-01-17T16:52:13.571Z,7.14
2023-01-17T16:54:45.569Z,7.04
2023-01-17T16:57:17.505Z,7.08
2023-01-17T16:59:50.893Z,7.04
2023-01-17T17:02:23.301Z,6.99
2023-01-17T17:04:55.372Z,6.97
2023-01-17T17:07:27.361Z,6.93
2023-01-17T17:09:59.654Z,6.93
2023-01-17T17:12:32.883Z,6.87
2023-01-17T17:15:05.593Z,6.85
2023-01-17T17:17:43.323Z,6.71
2023-01-17T17:20:16.274Z,6.82
2023-01-17T17:22:52.086Z,6.74
2023-01-17T17:25:24.105Z,6.78
2023-01-17T17:27:56.003Z,6.75
2023-01-17T17:30:28.079Z,6.74
2023-01-17T17:33:00.197Z,6.66
2023-01-17T17:35:35.032Z,6.64
2023-01-17T17:38:07.046Z,6.64
2023-01-17T17:40:39.030Z,6.59
2023-01-17T17:43:11.017Z,6.52
2023-01-17T17:45:43.091Z,6.50
2023-01-17T17:48:15.080Z,6.53
2023-01-17T17:53:27.926Z,6.43
2023-01-17T17:56:05.702Z,6.18
2023-01-17T17:58:37.666Z,6.41
2023-01-17T18:01:09.676Z,6.32
2023-01-17T18:03:41.705Z,6.41
2023-01-17T18:06:13.743Z,6.27
2023-01-17T18:08:46.094Z,6.32
2023-01-17T18:11:23.059Z,6.28
2023-01-17T18:13:58.398Z,6.23
2023-01-17T18:16:37.448Z,6.14
2023-01-17T18:19:21.691Z,6.06
2023-01-17T18:21:54.468Z,6.11
2023-01-17T18:24:27.574Z,6.06
2023-01-17T18:26:59.674Z,6.06
2023-01-17T18:29:31.850Z,6.05
2023-01-17T18:32:03.891Z,6.01
2023-01-17T18:34:39.299Z,6.04
2023-01-17T18:37:11.226Z,6.07
2023-01-17T18:39:43.885Z,5.97
2023-01-17T18:42:15.820Z,6.00
2023-01-17T18:44:47.998Z,5.97
2023-01-17T18:47:20.137Z,5.92
2023-01-17T18:49:53.728Z,5.92
2023-01-17T18:52:25.782Z,5.94
2023-01-17T18:54:57.723Z,5.92
2023-01-17T18:57:29.737Z,5.90
2023-01-17T19:00:02.316Z,5.90
2023-01-17T19:02:34.304Z,5.91
2023-01-17T19:05:09.548Z,5.89
2023-01-17T19:07:41.479Z,5.89
2023-01-17T19:10:13.486Z,5.88
2023-01-17T19:12:45.573Z,5.87
2023-01-17T19:15:17.529Z,5.79
2023-01-17T19:17:49.623Z,5.82
2023-01-17T19:20:21.620Z,5.69
2023-01-17T19:22:53.602Z,5.76
2023-01-17T19:25:25.724Z,5.76
2023-01-17T19:27:58.525Z,5.69
2023-01-17T19:30:30.662Z,5.75
2023-01-17T19:33:02.597Z,5.73
2023-01-17T19:35:37.486Z,5.70
2023-01-17T19:38:09.492Z,5.59
2023-01-17T19:40:41.412Z,5.65
2023-01-17T19:43:13.405Z,5.62
2023-01-17T19:45:55.813Z,5.56
2023-01-17T19:48:29.061Z,5.50
2023-01-17T19:51:07.769Z,5.55
2023-01-17T19:53:41.382Z,5.57
2023-01-17T19:56:26.112Z,5.42
2023-01-17T19:59:01.311Z,5.51
2023-01-17T20:01:35.023Z,5.45
2023-01-17T20:04:07.175Z,5.44
2023-01-17T20:06:39.131Z,5.52
2023-01-17T20:09:12.458Z,5.52
2023-01-17T20:11:45.553Z,5.49
2023-01-17T20:14:17.629Z,5.44
2023-01-17T20:16:49.832Z,5.47
2023-01-17T20:19:22.182Z,5.44
2023-01-17T20:21:54.182Z,5.41
2023-01-17T20:24:26.238Z,5.39
2023-01-17T20:26:58.355Z,5.41
2023-01-17T20:29:30.407Z,5.40
2023-01-17T20:32:02.432Z,5.39
2023-01-17T20:34:34.414Z,5.38
2023-01-17T20:37:08.631Z,5.26
2023-01-17T20:39:41.158Z,5.29
2023-01-17T20:42:13.117Z,5.27
2023-01-17T20:44:45.589Z,5.31
2023-01-17T20:47:18.208Z,5.29
2023-01-17T20:49:50.239Z,5.31
2023-01-17T20:52:22.178Z,5.28
2023-01-17T20:54:54.335Z,5.26
2023-01-17T20:57:26.265Z,5.23
2023-01-17T20:59:58.330Z,5.27
2023-01-17T21:02:30.377Z,5.28
2023-01-17T21:05:03.753Z,5.27
2023-01-17T21:07:35.690Z,5.26
2023-01-17T21:10:08.255Z,5.24
2023-01-17T21:12:40.847Z,5.24
2023-01-17T21:15:17.651Z,5.22
2023-01-17T21:17:49.785Z,5.19
2023-01-17T21:20:21.700Z,5.20
2023-01-17T21:22:53.712Z,5.19
2023-01-17T21:25:25.660Z,5.18
2023-01-17T21:27:57.923Z,5.14
2023-01-17T21:30:30.211Z,5.12
2023-01-17T21:33:02.265Z,5.10
2023-01-17T21:35:34.219Z,4.93
2023-01-17T21:38:06.178Z,5.11
2023-01-17T21:40:38.333Z,5.11
2023-01-17T21:43:11.158Z,5.10
2023-01-17T21:45:43.287Z,5.02
2023-01-17T21:48:15.338Z,5.06
2023-01-17T21:50:52.078Z,5.05
2023-01-17T21:53:24.161Z,5.04
2023-01-17T21:56:24.040Z,4.91
2023-01-17T21:58:57.753Z,4.99
2023-01-17T22:01:33.093Z,4.94
2023-01-17T22:04:05.458Z,4.95
2023-01-17T22:06:39.406Z,4.95
2023-01-17T22:09:11.397Z,4.93
2023-01-17T22:11:43.399Z,4.93
2023-01-17T22:14:15.826Z,4.93
2023-01-17T22:16:48.677Z,4.93
2023-01-17T22:19:20.934Z,4.92
2023-01-17T22:21:54.403Z,4.90
2023-01-17T22:24:26.308Z,4.89
2023-01-17T22:26:58.352Z,4.86
2023-01-17T22:29:32.437Z,4.86
2023-01-17T22:32:04.916Z,4.82
2023-01-17T22:34:36.844Z,4.80
2023-01-17T22:37:10.154Z,4.78
2023-01-17T22:39:42.221Z,4.70
2023-01-17T22:42:15.150Z,4.72
2023-01-17T22:44:47.913Z,4.79
2023-01-17T22:47:19.781Z,4.75
2023-01-17T22:49:51.748Z,4.72
2023-01-17T22:52:23.671Z,4.64
2023-01-17T22:54:55.771Z,4.45
2023-01-17T22:57:27.816Z,4.71
2023-01-17T23:00:00.043Z,4.66
2023-01-17T23:02:31.996Z,4.67
2023-01-17T23:05:04.096Z,4.64
2023-01-17T23:07:43.585Z,4.63
2023-01-17T23:10:36.114Z,4.63
2023-01-17T23:13:11.186Z,4.61
2023-01-17T23:16:01.569Z,4.62
2023-01-17T23:18:52.001Z,4.57
2023-01-17T23:21:43.930Z,4.55
2023-01-17T23:24:15.853Z,4.55
2023-01-17T23:27:07.746Z,4.56
2023-01-17T23:29:39.691Z,4.54
2023-01-17T23:32:11.730Z,4.54
2023-01-17T23:34:43.685Z,4.54
2023-01-17T23:37:15.857Z,4.54
2023-01-17T23:39:47.851Z,4.53
2023-01-17T23:42:38.118Z,4.53
2023-01-17T23:45:10.541Z,4.38
2023-01-17T23:47:45.105Z,4.51
2023-01-17T23:50:17.237Z,4.48
2023-01-17T23:52:49.183Z,4.48
2023-01-17T23:55:21.263Z,4.48
2023-01-17T23:57:54.302Z,4.49
